sensor_id;sensor_type;location;lat;lon;timestamp;P1;durP1;ratioP1;P2;durP2;ratioP2
13797;SDS011;6970;51.340;3.240;2023-02-13T00:01:19;41.70;;;25.90;;
13797;SDS011;6970;51.340;3.240;2023-02-13T00:06:20;40.70;;;23.93;;
13797;SDS011;6970;51.340;3.240;2023-02-13T00:08:51;41.07;;;25.00;;
13797;SDS011;6970;51.340;3.240;2023-02-13T00:11:18;36.77;;;23.87;;
13797;SDS011;6970;51.340;3.240;2023-02-13T00:13:45;38.50;;;24.13;;
13797;SDS011;6970;51.340;3.240;2023-02-13T00:16:14;43.20;;;26.33;;
13797;SDS011;6970;51.340;3.240;2023-02-13T00:18:41;41.33;;;26.03;;
13797;SDS011;6970;51.340;3.240;2023-02-13T00:21:11;41.53;;;25.57;;
13797;SDS011;6970;51.340;3.240;2023-02-13T00:23:41;43.10;;;25.60;;
13797;SDS011;6970;51.340;3.240;2023-02-13T00:26:11;43.63;;;26.40;;
13797;SDS011;6970;51.340;3.240;2023-02-13T00:28:40;40.40;;;26.13;;
13797;SDS011;6970;51.340;3.240;2023-02-13T00:31:09;42.13;;;26.40;;
13797;SDS011;6970;51.340;3.240;2023-02-13T00:33:40;43.20;;;26.40;;
13797;SDS011;6970;51.340;3.240;2023-02-13T00:36:11;42.47;;;26.63;;
13797;SDS011;6970;51.340;3.240;2023-02-13T00:38:45;43.00;;;26.17;;
13797;SDS011;6970;51.340;3.240;2023-02-13T00:43:43;45.30;;;27.47;;
13797;SDS011;6970;51.340;3.240;2023-02-13T00:46:11;42.57;;;27.03;;
13797;SDS011;6970;51.340;3.240;2023-02-13T00:48:40;44.40;;;26.70;;
13797;SDS011;6970;51.340;3.240;2023-02-13T00:53:39;41.27;;;26.37;;
13797;SDS011;6970;51.340;3.240;2023-02-13T00:56:13;41.73;;;26.17;;
13797;SDS011;6970;51.340;3.240;2023-02-13T00:58:41;41.40;;;26.03;;
13797;SDS011;6970;51.340;3.240;2023-02-13T01:01:10;45.07;;;25.93;;
13797;SDS011;6970;51.340;3.240;2023-02-13T01:03:37;41.50;;;25.87;;
13797;SDS011;6970;51.340;3.240;2023-02-13T01:06:05;43.70;;;27.53;;
13797;SDS011;6970;51.340;3.240;2023-02-13T01:08:33;46.90;;;28.43;;
13797;SDS011;6970;51.340;3.240;2023-02-13T01:11:03;45.87;;;26.53;;
13797;SDS011;6970;51.340;3.240;2023-02-13T01:13:31;41.13;;;26.50;;
13797;SDS011;6970;51.340;3.240;2023-02-13T01:16:01;47.00;;;26.03;;
13797;SDS011;6970;51.340;3.240;2023-02-13T01:18:29;42.20;;;25.93;;
13797;SDS011;6970;51.340;3.240;2023-02-13T01:20:57;40.80;;;25.77;;
13797;SDS011;6970;51.340;3.240;2023-02-13T01:23:32;44.03;;;26.53;;
13797;SDS011;6970;51.340;3.240;2023-02-13T01:26:02;43.37;;;26.03;;
13797;SDS011;6970;51.340;3.240;2023-02-13T01:28:33;42.13;;;26.67;;
13797;SDS011;6970;51.340;3.240;2023-02-13T01:36:17;39.87;;;25.13;;
13797;SDS011;6970;51.340;3.240;2023-02-13T01:38:47;40.93;;;25.23;;
13797;SDS011;6970;51.340;3.240;2023-02-13T01:41:15;37.97;;;24.87;;
13797;SDS011;6970;51.340;3.240;2023-02-13T01:48:57;38.60;;;23.27;;
13797;SDS011;6970;51.340;3.240;2023-02-13T01:51:32;39.73;;;24.73;;
13797;SDS011;6970;51.340;3.240;2023-02-13T01:54:09;43.33;;;25.97;;
13797;SDS011;6970;51.340;3.240;2023-02-13T01:56:45;40.73;;;24.73;;
13797;SDS011;6970;51.340;3.240;2023-02-13T01:59:30;41.53;;;25.37;;
13797;SDS011;6970;51.340;3.240;2023-02-13T02:02:03;41.97;;;24.17;;
13797;SDS011;6970;51.340;3.240;2023-02-13T02:04:33;40.37;;;25.10;;
13797;SDS011;6970;51.340;3.240;2023-02-13T02:07:09;40.77;;;26.43;;
13797;SDS011;6970;51.340;3.240;2023-02-13T02:09:47;38.77;;;24.40;;
13797;SDS011;6970;51.340;3.240;2023-02-13T02:17:32;42.60;;;25.13;;
13797;SDS011;6970;51.340;3.240;2023-02-13T02:34:53;42.30;;;24.33;;
13797;SDS011;6970;51.340;3.240;2023-02-13T02:43:11;40.40;;;24.60;;
13797;SDS011;6970;51.340;3.240;2023-02-13T02:46:10;44.73;;;26.70;;
13797;SDS011;6970;51.340;3.240;2023-02-13T02:52:13;41.63;;;25.03;;
13797;SDS011;6970;51.340;3.240;2023-02-13T02:54:47;42.53;;;25.63;;
13797;SDS011;6970;51.340;3.240;2023-02-13T02:57:38;41.40;;;24.33;;
13797;SDS011;6970;51.340;3.240;2023-02-13T03:00:40;42.00;;;24.87;;
13797;SDS011;6970;51.340;3.240;2023-02-13T03:06:22;40.83;;;24.47;;
13797;SDS011;6970;51.340;3.240;2023-02-13T03:09:18;43.40;;;23.57;;
13797;SDS011;6970;51.340;3.240;2023-02-13T03:12:09;43.63;;;25.60;;
13797;SDS011;6970;51.340;3.240;2023-02-13T03:15:00;40.63;;;25.07;;
13797;SDS011;6970;51.340;3.240;2023-02-13T03:17:28;43.77;;;25.20;;
13797;SDS011;6970;51.340;3.240;2023-02-13T03:20:16;40.27;;;25.30;;
13797;SDS011;6970;51.340;3.240;2023-02-13T03:23:16;40.43;;;25.10;;
13797;SDS011;6970;51.340;3.240;2023-02-13T03:26:05;42.07;;;25.03;;
13797;SDS011;6970;51.340;3.240;2023-02-13T03:32:31;39.73;;;24.77;;
13797;SDS011;6970;51.340;3.240;2023-02-13T03:41:12;43.20;;;27.50;;
13797;SDS011;6970;51.340;3.240;2023-02-13T03:46:17;43.20;;;24.40;;
13797;SDS011;6970;51.340;3.240;2023-02-13T03:48:46;42.53;;;26.03;;
13797;SDS011;6970;51.340;3.240;2023-02-13T03:51:39;41.07;;;24.60;;
13797;SDS011;6970;51.340;3.240;2023-02-13T03:59:39;46.57;;;27.33;;
13797;SDS011;6970;51.340;3.240;2023-02-13T04:02:12;44.37;;;26.20;;
13797;SDS011;6970;51.340;3.240;2023-02-13T04:04:53;47.73;;;26.40;;
13797;SDS011;6970;51.340;3.240;2023-02-13T04:07:38;41.03;;;25.53;;
13797;SDS011;6970;51.340;3.240;2023-02-13T04:10:08;47.93;;;28.13;;
13797;SDS011;6970;51.340;3.240;2023-02-13T04:12:59;44.27;;;26.13;;
13797;SDS011;6970;51.340;3.240;2023-02-13T04:18:15;41.10;;;26.43;;
13797;SDS011;6970;51.340;3.240;2023-02-13T04:20:47;45.83;;;27.57;;
13797;SDS011;6970;51.340;3.240;2023-02-13T04:23:17;47.03;;;27.07;;
13797;SDS011;6970;51.340;3.240;2023-02-13T04:25:46;46.00;;;27.37;;
13797;SDS011;6970;51.340;3.240;2023-02-13T04:28:16;47.57;;;26.80;;
13797;SDS011;6970;51.340;3.240;2023-02-13T04:30:43;50.17;;;27.77;;
13797;SDS011;6970;51.340;3.240;2023-02-13T04:33:10;47.43;;;27.70;;
13797;SDS011;6970;51.340;3.240;2023-02-13T04:38:08;46.80;;;27.90;;
13797;SDS011;6970;51.340;3.240;2023-02-13T04:40:41;50.60;;;28.93;;
13797;SDS011;6970;51.340;3.240;2023-02-13T04:43:08;46.10;;;26.70;;
13797;SDS011;6970;51.340;3.240;2023-02-13T04:45:35;48.83;;;28.40;;
13797;SDS011;6970;51.340;3.240;2023-02-13T04:48:02;52.07;;;28.97;;
13797;SDS011;6970;51.340;3.240;2023-02-13T04:50:30;49.43;;;29.00;;
13797;SDS011;6970;51.340;3.240;2023-02-13T04:52:59;51.23;;;29.07;;
13797;SDS011;6970;51.340;3.240;2023-02-13T04:55:26;48.00;;;26.00;;
13797;SDS011;6970;51.340;3.240;2023-02-13T04:57:56;50.90;;;28.47;;
13797;SDS011;6970;51.340;3.240;2023-02-13T05:00:25;47.50;;;27.97;;
13797;SDS011;6970;51.340;3.240;2023-02-13T05:02:54;47.50;;;27.33;;
13797;SDS011;6970;51.340;3.240;2023-02-13T05:05:30;46.27;;;26.67;;
13797;SDS011;6970;51.340;3.240;2023-02-13T05:08:06;51.07;;;27.57;;
13797;SDS011;6970;51.340;3.240;2023-02-13T05:10:34;48.93;;;27.47;;
13797;SDS011;6970;51.340;3.240;2023-02-13T05:13:03;45.50;;;26.33;;
13797;SDS011;6970;51.340;3.240;2023-02-13T05:15:30;49.60;;;27.90;;
13797;SDS011;6970;51.340;3.240;2023-02-13T05:17:59;51.23;;;27.87;;
13797;SDS011;6970;51.340;3.240;2023-02-13T05:22:57;46.97;;;27.47;;
13797;SDS011;6970;51.340;3.240;2023-02-13T05:31:08;50.63;;;27.90;;
13797;SDS011;6970;51.340;3.240;2023-02-13T05:33:35;49.17;;;27.43;;
13797;SDS011;6970;51.340;3.240;2023-02-13T05:36:03;49.73;;;28.07;;
13797;SDS011;6970;51.340;3.240;2023-02-13T05:38:32;47.10;;;27.33;;
13797;SDS011;6970;51.340;3.240;2023-02-13T05:43:29;48.47;;;27.53;;
13797;SDS011;6970;51.340;3.240;2023-02-13T05:46:06;54.67;;;30.03;;
13797;SDS011;6970;51.340;3.240;2023-02-13T05:48:36;53.37;;;27.97;;
13797;SDS011;6970;51.340;3.240;2023-02-13T05:51:04;59.00;;;29.70;;
13797;SDS011;6970;51.340;3.240;2023-02-13T05:53:32;54.97;;;30.37;;
13797;SDS011;6970;51.340;3.240;2023-02-13T05:58:33;55.33;;;30.03;;
13797;SDS011;6970;51.340;3.240;2023-02-13T06:01:02;56.60;;;29.73;;
13797;SDS011;6970;51.340;3.240;2023-02-13T06:03:36;57.73;;;30.00;;
13797;SDS011;6970;51.340;3.240;2023-02-13T06:06:20;57.87;;;30.23;;
13797;SDS011;6970;51.340;3.240;2023-02-13T06:08:48;50.63;;;28.27;;
13797;SDS011;6970;51.340;3.240;2023-02-13T06:11:16;48.50;;;28.50;;
13797;SDS011;6970;51.340;3.240;2023-02-13T06:13:44;55.77;;;30.23;;
13797;SDS011;6970;51.340;3.240;2023-02-13T06:16:13;54.37;;;29.73;;
13797;SDS011;6970;51.340;3.240;2023-02-13T06:18:42;52.93;;;30.43;;
13797;SDS011;6970;51.340;3.240;2023-02-13T06:21:09;54.57;;;28.37;;
13797;SDS011;6970;51.340;3.240;2023-02-13T06:26:06;58.70;;;32.13;;
13797;SDS011;6970;51.340;3.240;2023-02-13T06:28:35;55.73;;;30.80;;
13797;SDS011;6970;51.340;3.240;2023-02-13T06:31:06;56.27;;;30.30;;
13797;SDS011;6970;51.340;3.240;2023-02-13T06:33:35;55.43;;;30.57;;
13797;SDS011;6970;51.340;3.240;2023-02-13T06:36:04;62.27;;;32.73;;
13797;SDS011;6970;51.340;3.240;2023-02-13T06:38:31;57.07;;;32.03;;
13797;SDS011;6970;51.340;3.240;2023-02-13T06:41:02;64.83;;;31.27;;
13797;SDS011;6970;51.340;3.240;2023-02-13T06:43:31;61.87;;;32.37;;
13797;SDS011;6970;51.340;3.240;2023-02-13T06:46:05;57.87;;;32.13;;
13797;SDS011;6970;51.340;3.240;2023-02-13T06:48:33;57.30;;;30.10;;
13797;SDS011;6970;51.340;3.240;2023-02-13T06:53:30;65.27;;;32.47;;
13797;SDS011;6970;51.340;3.240;2023-02-13T06:55:57;68.23;;;33.30;;
13797;SDS011;6970;51.340;3.240;2023-02-13T06:58:26;65.80;;;33.70;;
13797;SDS011;6970;51.340;3.240;2023-02-13T07:00:54;67.83;;;34.53;;
13797;SDS011;6970;51.340;3.240;2023-02-13T07:03:22;66.00;;;32.63;;
13797;SDS011;6970;51.340;3.240;2023-02-13T07:05:49;65.07;;;33.80;;
13797;SDS011;6970;51.340;3.240;2023-02-13T07:08:19;67.10;;;34.40;;
13797;SDS011;6970;51.340;3.240;2023-02-13T07:13:17;68.20;;;35.83;;
13797;SDS011;6970;51.340;3.240;2023-02-13T07:15:44;65.57;;;34.43;;
13797;SDS011;6970;51.340;3.240;2023-02-13T07:18:14;61.33;;;34.27;;
13797;SDS011;6970;51.340;3.240;2023-02-13T07:20:41;63.57;;;32.93;;
13797;SDS011;6970;51.340;3.240;2023-02-13T07:23:08;63.00;;;33.80;;
13797;SDS011;6970;51.340;3.240;2023-02-13T07:25:37;64.13;;;34.03;;
13797;SDS011;6970;51.340;3.240;2023-02-13T07:28:06;65.90;;;34.63;;
13797;SDS011;6970;51.340;3.240;2023-02-13T07:30:34;55.73;;;31.37;;
13797;SDS011;6970;51.340;3.240;2023-02-13T07:33:02;61.50;;;33.00;;
13797;SDS011;6970;51.340;3.240;2023-02-13T07:35:32;63.57;;;33.63;;
13797;SDS011;6970;51.340;3.240;2023-02-13T07:38:01;61.93;;;33.53;;
13797;SDS011;6970;51.340;3.240;2023-02-13T07:40:29;66.73;;;35.03;;
13797;SDS011;6970;51.340;3.240;2023-02-13T07:42:58;68.37;;;35.80;;
13797;SDS011;6970;51.340;3.240;2023-02-13T07:45:26;70.30;;;35.70;;
13797;SDS011;6970;51.340;3.240;2023-02-13T07:47:58;65.80;;;34.00;;
13797;SDS011;6970;51.340;3.240;2023-02-13T07:50:28;66.97;;;35.33;;
13797;SDS011;6970;51.340;3.240;2023-02-13T07:52:58;63.40;;;34.10;;
13797;SDS011;6970;51.340;3.240;2023-02-13T07:55:27;69.00;;;34.77;;
13797;SDS011;6970;51.340;3.240;2023-02-13T07:57:55;72.63;;;34.27;;
13797;SDS011;6970;51.340;3.240;2023-02-13T08:00:25;66.23;;;35.17;;
13797;SDS011;6970;51.340;3.240;2023-02-13T08:02:52;69.77;;;35.73;;
13797;SDS011;6970;51.340;3.240;2023-02-13T08:05:21;62.17;;;33.10;;
13797;SDS011;6970;51.340;3.240;2023-02-13T08:10:20;65.53;;;35.27;;
13797;SDS011;6970;51.340;3.240;2023-02-13T08:13:06;64.67;;;34.73;;
13797;SDS011;6970;51.340;3.240;2023-02-13T08:15:34;76.07;;;37.93;;
13797;SDS011;6970;51.340;3.240;2023-02-13T08:20:34;72.50;;;37.23;;
13797;SDS011;6970;51.340;3.240;2023-02-13T08:23:08;75.13;;;38.47;;
13797;SDS011;6970;51.340;3.240;2023-02-13T08:25:37;74.87;;;38.33;;
13797;SDS011;6970;51.340;3.240;2023-02-13T08:28:05;76.97;;;39.57;;
13797;SDS011;6970;51.340;3.240;2023-02-13T08:30:32;75.40;;;38.13;;
13797;SDS011;6970;51.340;3.240;2023-02-13T08:33:02;73.77;;;39.17;;
13797;SDS011;6970;51.340;3.240;2023-02-13T08:38:02;73.30;;;40.33;;
13797;SDS011;6970;51.340;3.240;2023-02-13T08:40:32;66.90;;;37.20;;
13797;SDS011;6970;51.340;3.240;2023-02-13T08:43:00;67.00;;;37.27;;
13797;SDS011;6970;51.340;3.240;2023-02-13T08:45:28;61.37;;;37.57;;
13797;SDS011;6970;51.340;3.240;2023-02-13T08:50:29;58.97;;;37.50;;
13797;SDS011;6970;51.340;3.240;2023-02-13T08:52:58;58.20;;;39.63;;
13797;SDS011;6970;51.340;3.240;2023-02-13T08:55:27;58.90;;;38.17;;
13797;SDS011;6970;51.340;3.240;2023-02-13T08:58:00;64.67;;;39.20;;
13797;SDS011;6970;51.340;3.240;2023-02-13T09:00:28;66.37;;;40.37;;
13797;SDS011;6970;51.340;3.240;2023-02-13T09:03:03;58.90;;;39.97;;
13797;SDS011;6970;51.340;3.240;2023-02-13T09:05:35;61.50;;;39.70;;
13797;SDS011;6970;51.340;3.240;2023-02-13T09:13:04;57.60;;;39.50;;
13797;SDS011;6970;51.340;3.240;2023-02-13T09:15:36;61.23;;;40.00;;
13797;SDS011;6970;51.340;3.240;2023-02-13T09:20:40;59.00;;;40.43;;
13797;SDS011;6970;51.340;3.240;2023-02-13T09:23:13;55.97;;;38.83;;
13797;SDS011;6970;51.340;3.240;2023-02-13T09:28:13;58.53;;;39.80;;
13797;SDS011;6970;51.340;3.240;2023-02-13T09:33:11;53.63;;;39.57;;
13797;SDS011;6970;51.340;3.240;2023-02-13T09:38:10;52.33;;;39.30;;
13797;SDS011;6970;51.340;3.240;2023-02-13T09:43:30;54.63;;;40.07;;
13797;SDS011;6970;51.340;3.240;2023-02-13T09:46:15;54.63;;;40.70;;
13797;SDS011;6970;51.340;3.240;2023-02-13T09:48:50;52.77;;;41.13;;
13797;SDS011;6970;51.340;3.240;2023-02-13T09:51:21;52.10;;;39.23;;
13797;SDS011;6970;51.340;3.240;2023-02-13T09:57:07;45.67;;;35.87;;
13797;SDS011;6970;51.340;3.240;2023-02-13T10:02:16;41.13;;;34.43;;
13797;SDS011;6970;51.340;3.240;2023-02-13T10:11:06;39.77;;;33.13;;
13797;SDS011;6970;51.340;3.240;2023-02-13T10:14:10;41.15;;;32.72;;
13797;SDS011;6970;51.340;3.240;2023-02-13T10:22:04;41.72;;;31.33;;
13797;SDS011;6970;51.340;3.240;2023-02-13T10:24:53;39.33;;;31.17;;
13797;SDS011;6970;51.340;3.240;2023-02-13T10:27:36;35.47;;;29.40;;
13797;SDS011;6970;51.340;3.240;2023-02-13T10:30:27;30.20;;;26.00;;
13797;SDS011;6970;51.340;3.240;2023-02-13T10:36:05;26.10;;;23.17;;
13797;SDS011;6970;51.340;3.240;2023-02-13T10:38:43;28.90;;;23.85;;
13797;SDS011;6970;51.340;3.240;2023-02-13T10:58:26;23.92;;;20.60;;
13797;SDS011;6970;51.340;3.240;2023-02-13T11:03:38;23.85;;;21.25;;
13797;SDS011;6970;51.340;3.240;2023-02-13T11:06:06;22.77;;;20.27;;
13797;SDS011;6970;51.340;3.240;2023-02-13T11:08:38;23.55;;;20.35;;
13797;SDS011;6970;51.340;3.240;2023-02-13T11:11:28;20.67;;;18.50;;
13797;SDS011;6970;51.340;3.240;2023-02-13T11:14:08;21.98;;;19.67;;
13797;SDS011;6970;51.340;3.240;2023-02-13T11:19:28;23.65;;;21.00;;
13797;SDS011;6970;51.340;3.240;2023-02-13T11:22:00;22.55;;;20.15;;
13797;SDS011;6970;51.340;3.240;2023-02-13T11:24:33;21.85;;;19.55;;
13797;SDS011;6970;51.340;3.240;2023-02-13T11:29:36;24.23;;;21.33;;
13797;SDS011;6970;51.340;3.240;2023-02-13T11:32:18;23.85;;;21.20;;
13797;SDS011;6970;51.340;3.240;2023-02-13T11:34:48;23.02;;;20.45;;
13797;SDS011;6970;51.340;3.240;2023-02-13T11:37:25;23.92;;;19.70;;
13797;SDS011;6970;51.340;3.240;2023-02-13T11:39:57;21.45;;;19.20;;
13797;SDS011;6970;51.340;3.240;2023-02-13T11:47:48;25.95;;;21.65;;
13797;SDS011;6970;51.340;3.240;2023-02-13T11:50:33;22.90;;;20.40;;
13797;SDS011;6970;51.340;3.240;2023-02-13T12:01:25;23.57;;;19.10;;
13797;SDS011;6970;51.340;3.240;2023-02-13T12:06:31;23.63;;;19.93;;
13797;SDS011;6970;51.340;3.240;2023-02-13T12:09:13;25.83;;;20.33;;
13797;SDS011;6970;51.340;3.240;2023-02-13T12:11:48;27.90;;;20.07;;
13797;SDS011;6970;51.340;3.240;2023-02-13T12:14:23;25.43;;;19.77;;
13797;SDS011;6970;51.340;3.240;2023-02-13T12:19:57;24.23;;;19.47;;
13797;SDS011;6970;51.340;3.240;2023-02-13T12:22:29;26.63;;;20.33;;
13797;SDS011;6970;51.340;3.240;2023-02-13T12:54:15;24.23;;;18.97;;
13797;SDS011;6970;51.340;3.240;2023-02-13T13:14:04;26.53;;;20.70;;
13797;SDS011;6970;51.340;3.240;2023-02-13T13:22:13;23.00;;;19.80;;
13797;SDS011;6970;51.340;3.240;2023-02-13T13:27:24;23.40;;;19.47;;
13797;SDS011;6970;51.340;3.240;2023-02-13T13:30:31;27.07;;;20.10;;
13797;SDS011;6970;51.340;3.240;2023-02-13T13:35:32;22.63;;;19.97;;
13797;SDS011;6970;51.340;3.240;2023-02-13T13:38:10;25.80;;;19.67;;
13797;SDS011;6970;51.340;3.240;2023-02-13T13:46:02;23.00;;;19.87;;
13797;SDS011;6970;51.340;3.240;2023-02-13T13:51:06;25.47;;;20.73;;
13797;SDS011;6970;51.340;3.240;2023-02-13T13:54:19;26.47;;;19.63;;
13797;SDS011;6970;51.340;3.240;2023-02-13T13:56:26;28.60;;;20.90;;
13797;SDS011;6970;51.340;3.240;2023-02-13T13:59:17;24.50;;;19.30;;
13797;SDS011;6970;51.340;3.240;2023-02-13T14:01:48;24.40;;;18.77;;
13797;SDS011;6970;51.340;3.240;2023-02-13T14:07:35;25.30;;;19.33;;
13797;SDS011;6970;51.340;3.240;2023-02-13T14:12:50;21.73;;;17.83;;
13797;SDS011;6970;51.340;3.240;2023-02-13T14:26:22;25.00;;;20.53;;
13797;SDS011;6970;51.340;3.240;2023-02-13T14:31:51;24.20;;;18.90;;
13797;SDS011;6970;51.340;3.240;2023-02-13T14:34:27;24.67;;;19.63;;
13797;SDS011;6970;51.340;3.240;2023-02-13T14:42:48;25.83;;;19.80;;
13797;SDS011;6970;51.340;3.240;2023-02-13T14:45:26;21.73;;;18.47;;
13797;SDS011;6970;51.340;3.240;2023-02-13T14:48:01;25.40;;;19.67;;
13797;SDS011;6970;51.340;3.240;2023-02-13T14:50:39;23.17;;;19.67;;
13797;SDS011;6970;51.340;3.240;2023-02-13T14:53:25;25.20;;;19.40;;
13797;SDS011;6970;51.340;3.240;2023-02-13T14:56:05;24.90;;;19.17;;
13797;SDS011;6970;51.340;3.240;2023-02-13T14:58:45;26.43;;;20.07;;
13797;SDS011;6970;51.340;3.240;2023-02-13T15:01:32;23.43;;;19.00;;
13797;SDS011;6970;51.340;3.240;2023-02-13T15:04:21;26.07;;;19.50;;
13797;SDS011;6970;51.340;3.240;2023-02-13T15:06:50;25.07;;;18.93;;
13797;SDS011;6970;51.340;3.240;2023-02-13T15:12:03;22.07;;;18.57;;
13797;SDS011;6970;51.340;3.240;2023-02-13T15:14:49;23.87;;;20.20;;
13797;SDS011;6970;51.340;3.240;2023-02-13T15:17:29;25.80;;;19.63;;
13797;SDS011;6970;51.340;3.240;2023-02-13T15:20:25;24.13;;;18.57;;
13797;SDS011;6970;51.340;3.240;2023-02-13T15:22:56;23.83;;;19.80;;
13797;SDS011;6970;51.340;3.240;2023-02-13T15:25:28;25.30;;;19.60;;
13797;SDS011;6970;51.340;3.240;2023-02-13T15:27:57;25.93;;;19.67;;
13797;SDS011;6970;51.340;3.240;2023-02-13T15:30:28;23.80;;;19.00;;
13797;SDS011;6970;51.340;3.240;2023-02-13T15:33:02;23.40;;;20.33;;
13797;SDS011;6970;51.340;3.240;2023-02-13T15:35:43;23.10;;;18.17;;
13797;SDS011;6970;51.340;3.240;2023-02-13T15:41:08;23.57;;;19.30;;
13797;SDS011;6970;51.340;3.240;2023-02-13T15:43:48;29.27;;;20.80;;
13797;SDS011;6970;51.340;3.240;2023-02-13T15:46:28;25.10;;;20.20;;
13797;SDS011;6970;51.340;3.240;2023-02-13T15:49:06;25.07;;;19.40;;
13797;SDS011;6970;51.340;3.240;2023-02-13T15:54:29;28.30;;;20.73;;
13797;SDS011;6970;51.340;3.240;2023-02-13T15:57:00;25.00;;;19.20;;
13797;SDS011;6970;51.340;3.240;2023-02-13T15:59:36;26.97;;;20.87;;
13797;SDS011;6970;51.340;3.240;2023-02-13T16:02:15;27.33;;;20.27;;
13797;SDS011;6970;51.340;3.240;2023-02-13T16:04:49;27.93;;;20.43;;
13797;SDS011;6970;51.340;3.240;2023-02-13T16:07:20;24.80;;;20.30;;
13797;SDS011;6970;51.340;3.240;2023-02-13T16:12:24;25.97;;;20.20;;
13797;SDS011;6970;51.340;3.240;2023-02-13T16:20:07;25.90;;;20.00;;
13797;SDS011;6970;51.340;3.240;2023-02-13T16:30:42;29.17;;;20.43;;
13797;SDS011;6970;51.340;3.240;2023-02-13T16:43:53;28.70;;;20.83;;
13797;SDS011;6970;51.340;3.240;2023-02-13T16:46:35;27.30;;;20.83;;
13797;SDS011;6970;51.340;3.240;2023-02-13T17:02:40;29.20;;;20.60;;
13797;SDS011;6970;51.340;3.240;2023-02-13T17:07:39;24.13;;;19.67;;
13797;SDS011;6970;51.340;3.240;2023-02-13T17:12:40;28.70;;;20.40;;
13797;SDS011;6970;51.340;3.240;2023-02-13T17:15:09;28.73;;;21.83;;
13797;SDS011;6970;51.340;3.240;2023-02-13T17:17:45;26.60;;;20.23;;
13797;SDS011;6970;51.340;3.240;2023-02-13T17:20:16;24.30;;;19.10;;
13797;SDS011;6970;51.340;3.240;2023-02-13T17:25:28;25.70;;;19.47;;
13797;SDS011;6970;51.340;3.240;2023-02-13T17:27:57;28.97;;;21.57;;
13797;SDS011;6970;51.340;3.240;2023-02-13T17:35:33;31.90;;;24.10;;
13797;SDS011;6970;51.340;3.240;2023-02-13T17:38:00;37.27;;;25.93;;
13797;SDS011;6970;51.340;3.240;2023-02-13T17:40:29;32.63;;;25.20;;
13797;SDS011;6970;51.340;3.240;2023-02-13T17:42:57;36.87;;;25.40;;
13797;SDS011;6970;51.340;3.240;2023-02-13T17:45:26;30.10;;;24.37;;
13797;SDS011;6970;51.340;3.240;2023-02-13T17:53:03;30.90;;;24.33;;
13797;SDS011;6970;51.340;3.240;2023-02-13T17:55:33;30.83;;;24.57;;
13797;SDS011;6970;51.340;3.240;2023-02-13T17:58:03;34.67;;;25.00;;
13797;SDS011;6970;51.340;3.240;2023-02-13T18:00:30;32.67;;;25.40;;
13797;SDS011;6970;51.340;3.240;2023-02-13T18:02:59;34.77;;;23.83;;
13797;SDS011;6970;51.340;3.240;2023-02-13T18:05:26;32.53;;;24.47;;
13797;SDS011;6970;51.340;3.240;2023-02-13T18:07:57;34.13;;;25.53;;
13797;SDS011;6970;51.340;3.240;2023-02-13T18:10:25;35.63;;;25.00;;
13797;SDS011;6970;51.340;3.240;2023-02-13T18:12:53;33.87;;;24.43;;
13797;SDS011;6970;51.340;3.240;2023-02-13T18:15:24;35.17;;;24.67;;
13797;SDS011;6970;51.340;3.240;2023-02-13T18:17:51;33.40;;;24.23;;
13797;SDS011;6970;51.340;3.240;2023-02-13T18:20:19;31.60;;;23.70;;
13797;SDS011;6970;51.340;3.240;2023-02-13T18:22:47;32.97;;;23.13;;
13797;SDS011;6970;51.340;3.240;2023-02-13T18:27:46;35.60;;;26.97;;
13797;SDS011;6970;51.340;3.240;2023-02-13T18:30:15;38.17;;;28.03;;
13797;SDS011;6970;51.340;3.240;2023-02-13T18:32:54;35.63;;;25.93;;
13797;SDS011;6970;51.340;3.240;2023-02-13T18:35:25;35.77;;;25.07;;
13797;SDS011;6970;51.340;3.240;2023-02-13T18:37:52;44.47;;;26.30;;
13797;SDS011;6970;51.340;3.240;2023-02-13T18:40:21;35.33;;;25.13;;
13797;SDS011;6970;51.340;3.240;2023-02-13T18:42:50;36.43;;;25.03;;
13797;SDS011;6970;51.340;3.240;2023-02-13T18:45:20;33.03;;;23.33;;
13797;SDS011;6970;51.340;3.240;2023-02-13T18:47:51;36.47;;;26.13;;
13797;SDS011;6970;51.340;3.240;2023-02-13T18:50:19;36.60;;;26.30;;
13797;SDS011;6970;51.340;3.240;2023-02-13T18:52:48;38.87;;;29.83;;
13797;SDS011;6970;51.340;3.240;2023-02-13T18:55:17;40.07;;;28.67;;
13797;SDS011;6970;51.340;3.240;2023-02-13T18:57:45;39.00;;;28.30;;
13797;SDS011;6970;51.340;3.240;2023-02-13T19:00:13;42.60;;;30.40;;
13797;SDS011;6970;51.340;3.240;2023-02-13T19:02:41;36.83;;;27.33;;
13797;SDS011;6970;51.340;3.240;2023-02-13T19:05:08;40.73;;;28.47;;
13797;SDS011;6970;51.340;3.240;2023-02-13T19:07:35;36.87;;;27.70;;
13797;SDS011;6970;51.340;3.240;2023-02-13T19:10:02;38.17;;;27.43;;
13797;SDS011;6970;51.340;3.240;2023-02-13T19:12:30;37.97;;;26.53;;
13797;SDS011;6970;51.340;3.240;2023-02-13T19:14:56;41.00;;;27.50;;
13797;SDS011;6970;51.340;3.240;2023-02-13T19:17:23;39.50;;;27.07;;
13797;SDS011;6970;51.340;3.240;2023-02-13T19:19:50;35.07;;;26.43;;
13797;SDS011;6970;51.340;3.240;2023-02-13T19:22:17;34.37;;;26.07;;
13797;SDS011;6970;51.340;3.240;2023-02-13T19:24:44;37.47;;;26.83;;
13797;SDS011;6970;51.340;3.240;2023-02-13T19:27:11;36.07;;;26.43;;
13797;SDS011;6970;51.340;3.240;2023-02-13T19:29:38;37.40;;;27.97;;
13797;SDS011;6970;51.340;3.240;2023-02-13T19:32:05;41.23;;;27.10;;
13797;SDS011;6970;51.340;3.240;2023-02-13T19:34:33;36.87;;;27.07;;
13797;SDS011;6970;51.340;3.240;2023-02-13T19:37:00;40.00;;;27.67;;
13797;SDS011;6970;51.340;3.240;2023-02-13T19:39:27;38.83;;;27.17;;
13797;SDS011;6970;51.340;3.240;2023-02-13T19:41:55;40.33;;;28.43;;
13797;SDS011;6970;51.340;3.240;2023-02-13T19:44:22;39.40;;;26.57;;
13797;SDS011;6970;51.340;3.240;2023-02-13T19:46:49;37.57;;;25.43;;
13797;SDS011;6970;51.340;3.240;2023-02-13T19:49:16;38.43;;;27.03;;
13797;SDS011;6970;51.340;3.240;2023-02-13T19:51:44;38.03;;;26.33;;
13797;SDS011;6970;51.340;3.240;2023-02-13T19:54:12;40.23;;;27.93;;
13797;SDS011;6970;51.340;3.240;2023-02-13T19:56:39;43.93;;;28.37;;
13797;SDS011;6970;51.340;3.240;2023-02-13T19:59:07;36.87;;;26.83;;
13797;SDS011;6970;51.340;3.240;2023-02-13T20:01:37;42.80;;;28.83;;
13797;SDS011;6970;51.340;3.240;2023-02-13T20:04:08;42.63;;;27.97;;
13797;SDS011;6970;51.340;3.240;2023-02-13T20:06:36;41.37;;;27.80;;
13797;SDS011;6970;51.340;3.240;2023-02-13T20:09:05;37.73;;;26.50;;
13797;SDS011;6970;51.340;3.240;2023-02-13T20:11:34;38.03;;;26.90;;
13797;SDS011;6970;51.340;3.240;2023-02-13T20:14:01;40.20;;;27.93;;
13797;SDS011;6970;51.340;3.240;2023-02-13T20:16:30;39.03;;;27.57;;
13797;SDS011;6970;51.340;3.240;2023-02-13T20:19:01;44.77;;;27.30;;
13797;SDS011;6970;51.340;3.240;2023-02-13T20:21:32;41.30;;;28.80;;
13797;SDS011;6970;51.340;3.240;2023-02-13T20:24:00;42.00;;;28.43;;
13797;SDS011;6970;51.340;3.240;2023-02-13T20:26:30;38.53;;;27.87;;
13797;SDS011;6970;51.340;3.240;2023-02-13T20:28:57;43.83;;;30.30;;
13797;SDS011;6970;51.340;3.240;2023-02-13T20:31:25;46.20;;;29.90;;
13797;SDS011;6970;51.340;3.240;2023-02-13T20:33:54;40.47;;;29.33;;
13797;SDS011;6970;51.340;3.240;2023-02-13T20:36:22;45.17;;;30.20;;
13797;SDS011;6970;51.340;3.240;2023-02-13T20:38:52;43.00;;;29.97;;
13797;SDS011;6970;51.340;3.240;2023-02-13T20:41:22;43.40;;;29.33;;
13797;SDS011;6970;51.340;3.240;2023-02-13T20:43:52;41.53;;;29.53;;
13797;SDS011;6970;51.340;3.240;2023-02-13T20:46:33;44.20;;;31.57;;
13797;SDS011;6970;51.340;3.240;2023-02-13T20:49:01;42.43;;;29.20;;